Dallas, Texas
Traffic Map
Current Weather Conditions
Dallas, Texas
Overcast
Overcast
73°
Feels Like: 73°
Wind Chill: 73° Ceiling: 3000
Heat Index: 73° Visibility: 10mi
Dew Point: 66° Wind: 9mph
Humidity: 79% Direction: 340° (NNW)
Pressure: 29.93in Gusts: 0mph
Raw Report DataKDAL 290953Z 34008KT 10SM BKN030 OVC042 23/19 A2993 RMK AO2 SLP128 T02280189
Traffic Incident Summary
Active as of:
Severity:
Category:
InformationThere was an issue retrieving the traffic information for this location. Please try a different location or try again shortly.
Advertisements
Track Severe Weather on mobile